createdAt,value
2019-02-06T00:02:20.591Z,31.30
2019-02-06T00:04:47.649Z,28.50
2019-02-06T00:07:14.686Z,29.40
2019-02-06T00:09:41.738Z,28.60
2019-02-06T00:12:08.780Z,28.20
2019-02-06T00:14:36.122Z,29.70
2019-02-06T00:17:03.340Z,31.57
2019-02-06T00:19:30.358Z,30.57
2019-02-06T00:21:57.391Z,29.05
2019-02-06T00:24:24.462Z,29.65
2019-02-06T00:26:51.509Z,29.45
2019-02-06T00:29:18.561Z,29.80
2019-02-06T00:31:45.574Z,28.38
2019-02-06T00:34:12.803Z,29.80
2019-02-06T00:36:39.823Z,29.75
2019-02-06T00:39:08.307Z,32.48
2019-02-06T00:41:35.336Z,29.48
2019-02-06T00:44:02.366Z,29.00
2019-02-06T00:46:29.504Z,29.80
2019-02-06T00:48:56.567Z,28.73
2019-02-06T00:51:23.602Z,25.85
2019-02-06T00:53:50.647Z,29.18
2019-02-06T00:56:17.696Z,27.58
2019-02-06T00:58:44.725Z,25.32
2019-02-06T01:01:11.865Z,26.70
2019-02-06T01:03:38.898Z,28.70
2019-02-06T01:06:06.048Z,25.92
2019-02-06T01:08:33.087Z,27.13
2019-02-06T01:11:00.432Z,27.77
2019-02-06T01:13:27.470Z,28.73
2019-02-06T01:15:54.517Z,27.77
2019-02-06T01:18:21.554Z,27.75
2019-02-06T01:20:48.605Z,28.25
2019-02-06T01:23:16.506Z,28.15
2019-02-06T01:25:43.623Z,29.92
2019-02-06T01:28:10.672Z,29.07
2019-02-06T01:30:45.519Z,29.42
2019-02-06T01:33:12.821Z,27.95
2019-02-06T01:35:49.663Z,32.73
2019-02-06T01:38:08.796Z,27.82
2019-02-06T01:40:35.831Z,26.25
2019-02-06T01:43:02.872Z,25.82
2019-02-06T01:45:29.909Z,24.57
2019-02-06T01:47:57.269Z,26.25
2019-02-06T01:50:24.314Z,24.60
2019-02-06T01:52:51.368Z,26.87
2019-02-06T01:55:18.392Z,25.65
2019-02-06T01:57:45.443Z,26.27
2019-02-06T02:00:14.753Z,25.88
2019-02-06T02:02:41.797Z,25.97
2019-02-06T02:05:09.048Z,27.40
2019-02-06T02:07:36.072Z,25.70
2019-02-06T02:10:04.286Z,27.37
2019-02-06T02:12:31.427Z,28.30
2019-02-06T02:14:58.447Z,24.52
2019-02-06T02:17:25.474Z,23.98
2019-02-06T02:19:52.535Z,27.73
2019-02-06T02:22:19.574Z,28.23
2019-02-06T02:24:46.819Z,28.98
2019-02-06T02:27:13.870Z,28.42
2019-02-06T02:29:40.921Z,27.15
2019-02-06T02:32:07.951Z,26.12
2019-02-06T02:34:34.968Z,27.85
2019-02-06T02:37:01.980Z,27.17
2019-02-06T02:39:29.037Z,27.73
2019-02-06T02:41:56.408Z,27.50
2019-02-06T02:44:23.452Z,27.98
2019-02-06T02:46:50.510Z,28.40
2019-02-06T02:49:17.622Z,25.70
2019-02-06T02:51:44.690Z,27.48
2019-02-06T02:54:11.722Z,27.50
2019-02-06T02:56:38.759Z,24.57
2019-02-06T02:59:05.783Z,27.30
2019-02-06T03:01:44.089Z,25.62
2019-02-06T03:04:31.907Z,26.40
2019-02-06T03:06:58.935Z,29.40
2019-02-06T03:09:25.976Z,29.00
2019-02-06T03:11:53.400Z,27.50
2019-02-06T03:14:20.454Z,27.98
2019-02-06T03:16:47.505Z,28.02
2019-02-06T03:19:14.515Z,24.77
2019-02-06T03:21:41.538Z,22.75
2019-02-06T03:24:08.568Z,23.50
2019-02-06T03:26:35.602Z,24.72
2019-02-06T03:29:02.950Z,26.52
2019-02-06T03:31:30.303Z,26.50
2019-02-06T03:33:57.344Z,24.90
2019-02-06T03:36:24.383Z,29.02
2019-02-06T03:38:52.361Z,26.73
2019-02-06T03:41:19.406Z,28.35
2019-02-06T03:43:46.422Z,28.62
2019-02-06T03:46:13.475Z,27.75
2019-02-06T03:48:40.802Z,29.35
2019-02-06T03:51:07.835Z,27.90
2019-02-06T03:53:34.888Z,27.20
2019-02-06T03:56:01.937Z,24.82
2019-02-06T03:58:28.993Z,22.70
2019-02-06T04:00:56.033Z,25.97
2019-02-06T04:03:23.061Z,26.55
2019-02-06T04:05:50.097Z,26.75
2019-02-06T04:08:17.500Z,27.82
2019-02-06T04:10:44.531Z,28.10
2019-02-06T04:13:11.569Z,26.73
2019-02-06T04:15:38.622Z,26.68
2019-02-06T04:18:05.663Z,29.70
2019-02-06T04:20:32.741Z,31.48
2019-02-06T04:22:59.781Z,28.70
2019-02-06T04:25:26.838Z,27.70
2019-02-06T04:27:53.872Z,26.93
2019-02-06T04:30:20.889Z,26.25
2019-02-06T04:32:48.039Z,29.30
2019-02-06T04:35:15.167Z,27.25
2019-02-06T04:37:42.181Z,27.25
2019-02-06T04:40:11.913Z,26.33
2019-02-06T04:42:38.933Z,25.25
2019-02-06T04:45:07.002Z,24.23
2019-02-06T04:47:34.043Z,25.85
2019-02-06T04:50:01.114Z,24.90
2019-02-06T04:52:28.111Z,26.33
2019-02-06T04:54:55.162Z,26.97
2019-02-06T04:57:22.199Z,27.05
2019-02-06T04:59:49.238Z,26.15
2019-02-06T05:02:16.280Z,26.30
2019-02-06T05:04:43.497Z,30.23
2019-02-06T05:07:18.602Z,25.05
2019-02-06T05:09:39.500Z,28.23
2019-02-06T05:12:09.525Z,26.50
2019-02-06T05:14:35.498Z,30.30
2019-02-06T05:17:02.571Z,28.65
2019-02-06T05:19:29.572Z,25.02
2019-02-06T05:21:56.921Z,26.93
2019-02-06T05:24:23.949Z,30.70
2019-02-06T05:26:51.085Z,36.42
2019-02-06T05:29:18.144Z,31.45
2019-02-06T05:31:45.215Z,30.90
2019-02-06T05:34:12.256Z,28.10
2019-02-06T05:36:39.326Z,26.37
2019-02-06T05:39:07.346Z,24.77
2019-02-06T05:41:34.690Z,25.75
2019-02-06T05:44:01.753Z,26.55
2019-02-06T05:46:28.782Z,25.82
2019-02-06T05:48:55.820Z,28.23
2019-02-06T05:51:22.870Z,26.70
2019-02-06T05:53:49.917Z,27.98
2019-02-06T05:56:16.992Z,27.10
2019-02-06T05:58:44.031Z,25.95
2019-02-06T06:01:11.357Z,29.18
2019-02-06T06:03:38.412Z,26.20
2019-02-06T06:06:05.455Z,26.20
2019-02-06T06:08:32.499Z,30.90
2019-02-06T06:10:59.531Z,29.75
2019-02-06T06:13:26.576Z,29.15
2019-02-06T06:15:53.639Z,27.73
2019-02-06T06:18:21.972Z,26.27
2019-02-06T06:20:49.395Z,30.02
2019-02-06T06:23:16.778Z,30.68
2019-02-06T06:25:43.949Z,27.77
2019-02-06T06:28:10.979Z,30.43
2019-02-06T06:30:38.048Z,28.67
2019-02-06T06:33:05.079Z,30.35
2019-02-06T06:35:32.115Z,31.23
2019-02-06T06:38:02.881Z,28.90
2019-02-06T06:40:28.136Z,30.72
2019-02-06T06:42:55.171Z,27.95
2019-02-06T06:45:22.742Z,37.40
2019-02-06T06:47:50.006Z,33.20
2019-02-06T06:50:18.769Z,32.00
2019-02-06T06:52:45.822Z,27.42
2019-02-06T06:55:13.514Z,27.62
2019-02-06T06:57:40.963Z,27.52
2019-02-06T07:00:12.268Z,28.83
2019-02-06T07:02:39.333Z,30.00
2019-02-06T07:05:06.814Z,27.22
2019-02-06T07:07:33.869Z,24.32
2019-02-06T07:10:00.937Z,24.82
2019-02-06T07:12:27.959Z,24.57
2019-02-06T07:14:55.312Z,27.60
2019-02-06T07:17:22.349Z,24.72
2019-02-06T07:19:49.397Z,23.27
2019-02-06T07:22:16.454Z,25.77
2019-02-06T07:24:43.508Z,33.73
2019-02-06T07:27:10.605Z,25.85
2019-02-06T07:29:37.654Z,22.95
2019-02-06T07:32:04.695Z,22.07
2019-02-06T07:34:31.937Z,19.73
2019-02-06T07:36:58.982Z,21.25
2019-02-06T07:39:26.015Z,20.17
2019-02-06T07:41:53.088Z,22.00
2019-02-06T07:44:20.126Z,19.55
2019-02-06T07:46:47.191Z,21.20
2019-02-06T07:49:14.233Z,21.17
2019-02-06T07:51:41.292Z,21.52
2019-02-06T07:54:08.328Z,22.30
2019-02-06T07:56:35.391Z,23.62
2019-02-06T07:59:02.444Z,23.38
2019-02-06T08:01:29.470Z,23.80
2019-02-06T08:03:56.502Z,21.97
2019-02-06T08:06:23.539Z,24.47
2019-02-06T08:08:50.574Z,26.23
2019-02-06T08:11:17.605Z,25.62
2019-02-06T08:13:44.662Z,25.55
2019-02-06T08:16:11.701Z,23.90
2019-02-06T08:18:38.843Z,25.88
2019-02-06T08:21:05.896Z,27.17
2019-02-06T08:23:32.935Z,26.48
2019-02-06T08:25:59.978Z,24.02
2019-02-06T08:28:26.995Z,24.50
2019-02-06T08:30:54.453Z,23.87
2019-02-06T08:33:21.483Z,24.02
2019-02-06T08:35:48.521Z,27.02
2019-02-06T08:38:15.551Z,28.55
2019-02-06T08:40:42.609Z,29.15
2019-02-06T08:43:09.747Z,28.57
2019-02-06T08:45:36.791Z,26.65
2019-02-06T08:48:04.011Z,28.07
2019-02-06T08:50:31.190Z,26.27
2019-02-06T08:52:58.218Z,26.23
2019-02-06T08:55:26.729Z,25.70
2019-02-06T08:57:53.991Z,24.50
2019-02-06T09:00:26.296Z,23.18
2019-02-06T09:02:53.439Z,25.02
2019-02-06T09:05:20.508Z,20.25
2019-02-06T09:07:47.843Z,23.90
2019-02-06T09:10:16.385Z,22.62
2019-02-06T09:12:43.441Z,22.75
2019-02-06T09:15:11.209Z,24.25
2019-02-06T09:17:38.241Z,25.25
2019-02-06T09:20:08.612Z,24.65
2019-02-06T09:22:35.653Z,23.62
2019-02-06T09:25:03.201Z,21.87
2019-02-06T09:27:30.266Z,19.52
2019-02-06T09:29:57.326Z,20.68
2019-02-06T09:32:24.378Z,22.05
2019-02-06T09:34:51.434Z,23.57
2019-02-06T09:37:18.462Z,22.48
2019-02-06T09:39:45.537Z,26.55
2019-02-06T09:42:12.606Z,25.72
2019-02-06T09:44:39.778Z,22.62
2019-02-06T09:47:06.809Z,21.55
2019-02-06T09:49:33.869Z,22.27
2019-02-06T09:52:00.907Z,20.75
2019-02-06T09:54:27.967Z,21.05
2019-02-06T09:56:55.011Z,20.95
2019-02-06T09:59:22.064Z,21.57
2019-02-06T10:01:49.109Z,20.68
2019-02-06T10:04:16.170Z,21.00
2019-02-06T10:06:43.194Z,20.17
2019-02-06T10:09:10.253Z,21.40
2019-02-06T10:11:37.304Z,21.25
2019-02-06T10:14:04.356Z,21.57
2019-02-06T10:16:31.408Z,20.02
2019-02-06T10:18:58.440Z,20.43
2019-02-06T10:21:25.699Z,21.77
2019-02-06T10:23:52.790Z,19.92
2019-02-06T10:26:19.881Z,19.80
2019-02-06T10:28:46.939Z,20.20
2019-02-06T10:31:14.005Z,20.77
2019-02-06T10:33:41.068Z,19.73
2019-02-06T10:36:08.132Z,22.15
2019-02-06T10:38:35.180Z,20.45
2019-02-06T10:41:04.564Z,20.80
2019-02-06T10:43:35.064Z,19.77
2019-02-06T10:46:00.366Z,21.20
2019-02-06T10:48:27.420Z,20.45
2019-02-06T10:50:54.474Z,19.07
2019-02-06T10:53:21.644Z,20.12
2019-02-06T10:55:48.686Z,18.75
2019-02-06T10:58:16.039Z,20.75
2019-02-06T11:00:46.259Z,20.72
2019-02-06T11:03:13.322Z,20.62
2019-02-06T11:05:40.567Z,22.48
2019-02-06T11:08:07.607Z,22.77
2019-02-06T11:10:34.692Z,19.57
2019-02-06T11:13:02.052Z,22.07
2019-02-06T11:15:29.627Z,20.20
2019-02-06T11:17:56.765Z,20.30
2019-02-06T11:20:24.320Z,20.65
2019-02-06T11:22:51.367Z,21.68
2019-02-06T11:25:18.426Z,23.70
2019-02-06T11:27:45.481Z,21.00
2019-02-06T11:30:15.371Z,20.32
2019-02-06T11:32:42.542Z,20.60
2019-02-06T11:35:09.955Z,21.73
2019-02-06T11:37:37.004Z,20.80
2019-02-06T11:40:06.147Z,21.23
2019-02-06T11:42:33.189Z,19.42
2019-02-06T11:45:00.239Z,20.85
2019-02-06T11:47:27.323Z,19.80
2019-02-06T11:49:56.578Z,19.27
2019-02-06T11:52:23.876Z,19.90
2019-02-06T11:54:50.955Z,22.30
2019-02-06T11:57:18.043Z,20.90
2019-02-06T11:59:45.110Z,21.05
2019-02-06T12:02:13.215Z,20.08
2019-02-06T12:04:40.425Z,20.35
2019-02-06T12:07:07.495Z,21.40
2019-02-06T12:09:34.846Z,22.70
2019-02-06T12:12:01.916Z,23.02
2019-02-06T12:14:29.007Z,20.27
2019-02-06T12:16:56.064Z,21.80
2019-02-06T12:19:23.143Z,20.97
2019-02-06T12:21:50.192Z,21.57
2019-02-06T12:24:17.271Z,21.50
2019-02-06T12:26:44.336Z,24.18
2019-02-06T12:29:11.929Z,22.37
2019-02-06T12:31:39.026Z,22.17
2019-02-06T12:34:06.062Z,22.82
2019-02-06T12:36:33.108Z,22.93
2019-02-06T12:39:00.174Z,21.85
2019-02-06T12:41:27.253Z,23.45
2019-02-06T12:43:54.310Z,24.00
2019-02-06T12:46:21.360Z,24.65
2019-02-06T12:48:48.428Z,24.98
2019-02-06T12:51:15.498Z,22.85
2019-02-06T12:53:42.532Z,22.35
2019-02-06T12:56:09.612Z,20.62
2019-02-06T12:58:36.700Z,24.10
2019-02-06T13:01:04.506Z,21.25
2019-02-06T13:03:31.576Z,22.25
2019-02-06T13:05:58.614Z,21.20
2019-02-06T13:08:25.670Z,23.55
2019-02-06T13:10:52.751Z,20.10
2019-02-06T13:13:19.838Z,20.12
2019-02-06T13:15:47.561Z,21.73
2019-02-06T13:18:14.689Z,21.25
2019-02-06T13:20:41.751Z,19.90
2019-02-06T13:23:09.679Z,20.92
2019-02-06T13:25:36.768Z,22.80
2019-02-06T13:28:04.401Z,20.65
2019-02-06T13:30:33.773Z,22.05
2019-02-06T13:33:00.873Z,18.90
2019-02-06T13:35:27.963Z,20.82
2019-02-06T13:37:55.023Z,20.20
2019-02-06T13:40:22.794Z,21.68
2019-02-06T13:42:49.871Z,20.45
2019-02-06T13:45:22.214Z,24.02
2019-02-06T13:47:49.391Z,25.72
2019-02-06T13:50:22.121Z,21.02
2019-02-06T13:52:45.761Z,21.50
2019-02-06T13:55:14.586Z,19.37
2019-02-06T13:57:41.711Z,20.92
2019-02-06T14:00:14.619Z,20.55
2019-02-06T14:02:42.117Z,21.57
2019-02-06T14:05:09.555Z,19.92
2019-02-06T14:07:36.629Z,20.05
2019-02-06T14:10:04.477Z,17.45
2019-02-06T14:12:31.540Z,20.23
2019-02-06T14:14:58.611Z,19.17
2019-02-06T14:17:25.690Z,18.85
2019-02-06T14:19:53.164Z,18.98
2019-02-06T14:22:20.260Z,19.10
2019-02-06T14:25:05.696Z,19.52
2019-02-06T14:28:00.668Z,19.75
2019-02-06T14:30:48.361Z,19.98
2019-02-06T14:33:46.944Z,20.05
2019-02-06T14:36:50.465Z,20.15
2019-02-06T14:39:30.711Z,20.35
2019-02-06T14:42:32.224Z,19.80
2019-02-06T14:45:28.304Z,20.55
2019-02-06T14:48:35.076Z,20.52
2019-02-06T14:51:11.739Z,20.60
2019-02-06T14:54:20.645Z,20.55
2019-02-06T14:57:15.996Z,21.62
2019-02-06T15:00:26.938Z,19.50
2019-02-06T15:03:25.540Z,21.12
2019-02-06T15:06:34.752Z,21.77
2019-02-06T15:09:35.946Z,22.73
2019-02-06T15:12:44.961Z,20.17
2019-02-06T15:16:05.701Z,22.22
2019-02-06T15:18:48.545Z,22.10
2019-02-06T15:22:04.820Z,21.42
2019-02-06T15:25:01.961Z,22.77
2019-02-06T15:28:03.030Z,21.10
2019-02-06T15:31:23.901Z,19.57
2019-02-06T15:34:28.010Z,20.75
2019-02-06T15:37:36.073Z,20.62
2019-02-06T15:40:36.851Z,23.40
2019-02-06T15:43:19.485Z,20.10
2019-02-06T15:46:16.885Z,21.10
2019-02-06T15:49:28.777Z,21.12
2019-02-06T15:52:18.978Z,25.27
2019-02-06T15:55:36.915Z,22.07
2019-02-06T15:58:44.731Z,22.20
2019-02-06T16:01:34.643Z,22.37
2019-02-06T16:04:41.890Z,21.10
2019-02-06T16:07:35.801Z,19.23
2019-02-06T16:10:48.033Z,20.10
2019-02-06T16:13:39.264Z,21.10
2019-02-06T16:16:53.892Z,18.05
2019-02-06T16:20:05.969Z,18.42
2019-02-06T16:23:04.407Z,19.37
2019-02-06T16:26:07.191Z,19.70
2019-02-06T16:28:48.632Z,19.60
2019-02-06T16:31:56.399Z,19.70
2019-02-06T16:34:41.860Z,20.55
2019-02-06T16:37:28.620Z,19.05
2019-02-06T16:40:29.893Z,17.17
2019-02-06T16:43:33.028Z,18.80
2019-02-06T16:46:42.489Z,19.10
2019-02-06T16:49:52.957Z,18.27
2019-02-06T16:53:03.469Z,17.90
2019-02-06T16:56:16.002Z,19.30
2019-02-06T16:59:15.370Z,19.00
2019-02-06T17:02:18.740Z,21.17
2019-02-06T17:05:30.784Z,19.95
2019-02-06T17:08:16.354Z,19.25
2019-02-06T17:10:58.680Z,20.77
2019-02-06T17:14:00.137Z,20.12
2019-02-06T17:17:14.286Z,20.92
2019-02-06T17:20:34.684Z,22.05
2019-02-06T17:23:45.525Z,20.23
2019-02-06T17:26:33.142Z,19.45
2019-02-06T17:29:52.005Z,22.17
2019-02-06T17:33:12.946Z,22.05
2019-02-06T17:36:10.806Z,22.15
2019-02-06T17:39:09.964Z,20.85
2019-02-06T17:42:00.381Z,23.15
2019-02-06T17:44:50.684Z,21.87
2019-02-06T17:47:55.934Z,24.87
2019-02-06T17:51:08.416Z,22.80
2019-02-06T17:53:38.500Z,22.90
2019-02-06T17:56:06.527Z,23.25
2019-02-06T17:58:54.262Z,22.87
2019-02-06T18:04:27.969Z,21.30
2019-02-06T18:06:55.613Z,21.87
2019-02-06T18:09:22.997Z,22.65
2019-02-06T18:11:51.531Z,24.52
2019-02-06T18:17:21.906Z,24.23
2019-02-06T18:19:49.524Z,24.63
2019-02-06T19:20:59.234Z,28.95
2019-02-06T19:23:26.566Z,26.12
2019-02-06T19:26:21.512Z,28.47
2019-02-06T19:28:48.741Z,26.02
2019-02-06T19:31:16.066Z,27.30
2019-02-06T19:33:44.280Z,26.52
2019-02-06T19:36:12.646Z,29.70
2019-02-06T19:42:02.482Z,27.17
2019-02-06T19:44:32.500Z,28.80
2019-02-06T19:46:59.921Z,29.27
2019-02-06T19:49:27.873Z,28.40
2019-02-06T19:51:56.624Z,28.70
2019-02-06T19:54:26.032Z,31.25
2019-02-06T19:56:54.965Z,26.93
2019-02-06T19:59:22.698Z,29.55
2019-02-06T20:01:50.388Z,27.67
2019-02-06T20:04:18.269Z,26.73
2019-02-06T20:06:57.990Z,25.68
2019-02-06T20:09:25.749Z,29.45
2019-02-06T20:11:53.342Z,26.73
2019-02-06T20:14:21.201Z,25.72
2019-02-06T20:16:48.594Z,24.50
2019-02-06T20:19:16.751Z,26.02
2019-02-06T20:21:46.104Z,26.82
2019-02-06T20:24:13.539Z,28.57
2019-02-06T20:26:41.947Z,28.35
2019-02-06T20:29:09.314Z,30.88
2019-02-06T20:31:36.940Z,27.95
2019-02-06T20:34:05.658Z,25.90
2019-02-06T20:36:33.298Z,31.17
2019-02-06T20:39:03.115Z,29.25
2019-02-06T20:41:30.366Z,27.35
2019-02-06T20:43:57.504Z,29.60
2019-02-06T20:46:24.837Z,29.75
2019-02-06T20:48:57.391Z,28.95
2019-02-06T20:51:24.596Z,33.15
2019-02-06T20:53:52.002Z,34.33
2019-02-06T20:56:22.839Z,30.10
2019-02-06T20:58:52.635Z,29.40
2019-02-06T21:01:20.149Z,29.70
2019-02-06T21:03:47.675Z,33.55
2019-02-06T21:06:14.887Z,28.62
2019-02-06T21:08:42.073Z,29.82
2019-02-06T21:11:10.091Z,27.40
2019-02-06T21:13:37.287Z,30.30
2019-02-06T21:16:04.790Z,28.73
2019-02-06T21:18:32.049Z,29.70
2019-02-06T21:20:59.106Z,30.43
2019-02-06T21:23:27.000Z,28.30
2019-02-06T21:25:54.388Z,33.33
2019-02-06T21:28:21.415Z,30.23
2019-02-06T21:30:48.591Z,28.85
2019-02-06T21:33:15.783Z,29.30
2019-02-06T21:35:43.084Z,28.85
2019-02-06T21:38:10.157Z,32.08
2019-02-06T21:40:37.231Z,28.23
2019-02-06T21:43:04.780Z,26.87
2019-02-06T21:45:31.857Z,26.42
2019-02-06T21:47:59.254Z,30.55
2019-02-06T21:50:46.041Z,28.67
2019-02-06T21:53:13.064Z,27.13
2019-02-06T21:55:40.159Z,28.95
2019-02-06T22:00:53.768Z,31.52
2019-02-06T22:03:21.093Z,33.83
2019-02-06T22:05:48.142Z,33.60
2019-02-06T22:08:15.151Z,31.17
2019-02-06T22:10:42.244Z,36.10
2019-02-06T22:13:09.260Z,30.55
2019-02-06T22:15:36.829Z,28.35
2019-02-06T22:18:03.811Z,28.80
2019-02-06T22:20:31.132Z,33.48
2019-02-06T22:22:58.186Z,31.27
2019-02-06T22:25:25.183Z,30.97
2019-02-06T22:27:52.196Z,30.65
2019-02-06T22:30:21.103Z,31.30
2019-02-06T22:32:48.099Z,33.02
2019-02-06T22:35:15.044Z,36.05
2019-02-06T22:37:42.401Z,32.75
2019-02-06T22:40:11.697Z,33.40
2019-02-06T22:42:38.725Z,31.02
2019-02-06T22:45:07.782Z,32.08
2019-02-06T22:47:34.767Z,30.77
2019-02-06T22:50:01.735Z,32.78
2019-02-06T22:52:28.899Z,34.10
2019-02-06T22:54:56.186Z,32.90
2019-02-06T22:57:23.216Z,32.50
2019-02-06T22:59:50.199Z,30.70
2019-02-06T23:02:17.273Z,32.03
2019-02-06T23:04:44.269Z,28.73
2019-02-06T23:07:11.227Z,32.53
2019-02-06T23:09:38.467Z,30.40
2019-02-06T23:12:05.737Z,30.43
2019-02-06T23:14:33.022Z,30.92
2019-02-06T23:17:00.464Z,32.48
2019-02-06T23:19:27.409Z,29.48
2019-02-06T23:21:54.779Z,30.00
2019-02-06T23:24:21.813Z,31.30
2019-02-06T23:26:48.829Z,30.15
2019-02-06T23:29:16.162Z,29.20
2019-02-06T23:31:43.203Z,30.80
2019-02-06T23:34:10.183Z,31.25
2019-02-06T23:36:37.200Z,28.83
2019-02-06T23:42:31.749Z,29.63
2019-02-06T23:44:58.708Z,30.17
2019-02-06T23:47:25.794Z,26.73
2019-02-06T23:49:52.790Z,27.55
2019-02-06T23:52:19.892Z,26.20
2019-02-06T23:54:46.890Z,28.23
2019-02-06T23:57:14.154Z,28.40
2019-02-06T23:59:41.168Z,28.50
